createdAt,value
2022-08-09T00:00:58.987Z,1.50
2022-08-09T00:04:10.960Z,1.30
2022-08-09T00:06:22.895Z,1.60
2022-08-09T00:08:52.290Z,1.42
2022-08-09T00:11:58.538Z,1.20
2022-08-09T00:14:21.775Z,1.80
2022-08-09T00:16:50.645Z,1.50
2022-08-09T00:19:20.301Z,1.48
2022-08-09T00:21:56.060Z,1.55
2022-08-09T00:24:27.318Z,1.40
2022-08-09T00:26:56.290Z,1.70
2022-08-09T00:30:10.417Z,2.00
2022-08-09T00:32:14.268Z,1.60
2022-08-09T00:34:55.804Z,1.40
2022-08-09T00:37:24.166Z,1.98
2022-08-09T00:40:12.324Z,1.80
2022-08-09T00:44:16.262Z,1.60
2022-08-09T00:45:28.933Z,1.70
2022-08-09T00:47:57.458Z,1.50
2022-08-09T00:50:27.481Z,2.30
2022-08-09T00:52:56.268Z,1.70
2022-08-09T00:56:03.915Z,1.67
2022-08-09T00:58:14.561Z,1.58
2022-08-09T01:00:45.193Z,1.67
2022-08-09T01:03:18.640Z,1.70
2022-08-09T01:05:57.699Z,1.73
2022-08-09T01:08:34.842Z,1.73
2022-08-09T01:11:21.038Z,1.50
2022-08-09T01:14:00.193Z,1.90
2022-08-09T01:16:36.903Z,1.60
2022-08-09T01:19:39.667Z,1.63
2022-08-09T01:22:31.993Z,2.30
2022-08-09T01:25:19.386Z,1.42
2022-08-09T01:27:54.334Z,2.00
2022-08-09T01:30:51.921Z,1.80
2022-08-09T01:33:19.388Z,1.58
2022-08-09T01:35:54.592Z,1.83
2022-08-09T01:38:27.511Z,2.22
2022-08-09T01:41:05.683Z,1.92
2022-08-09T01:43:50.148Z,1.90
2022-08-09T01:46:23.953Z,1.80
2022-08-09T01:48:57.183Z,1.60
2022-08-09T01:51:32.335Z,1.65
2022-08-09T01:54:04.325Z,1.90
2022-08-09T01:56:36.382Z,1.90
2022-08-09T01:59:11.099Z,2.00
2022-08-09T02:01:59.186Z,1.90
2022-08-09T02:04:30.726Z,2.40
2022-08-09T02:07:18.335Z,2.10
2022-08-09T02:10:03.975Z,2.00
2022-08-09T02:12:35.148Z,1.80
2022-08-09T02:15:08.313Z,1.90
2022-08-09T02:18:01.383Z,2.10
2022-08-09T02:20:34.236Z,2.00
2022-08-09T02:23:09.455Z,2.30
2022-08-09T02:25:42.485Z,2.10
2022-08-09T02:28:21.309Z,2.00
2022-08-09T02:31:00.528Z,2.20
2022-08-09T02:33:58.407Z,2.53
2022-08-09T02:36:29.989Z,2.40
2022-08-09T02:39:05.114Z,1.85
2022-08-09T02:41:38.221Z,2.10
2022-08-09T02:44:29.090Z,2.70
2022-08-09T02:47:04.217Z,2.10
2022-08-09T02:49:38.932Z,2.67
2022-08-09T02:52:14.686Z,1.88
2022-08-09T02:54:51.283Z,2.40
2022-08-09T02:57:25.223Z,2.33
2022-08-09T03:00:20.484Z,2.47
2022-08-09T03:02:59.818Z,2.90
2022-08-09T03:05:34.398Z,2.42
2022-08-09T03:08:06.310Z,2.70
2022-08-09T03:10:37.468Z,2.20
2022-08-09T03:13:08.291Z,2.55
2022-08-09T03:16:04.616Z,2.50
2022-08-09T03:18:30.521Z,2.67
2022-08-09T03:21:01.890Z,2.40
2022-08-09T03:23:30.499Z,2.40
2022-08-09T03:26:03.658Z,1.98
2022-08-09T03:28:34.973Z,2.40
2022-08-09T03:31:10.134Z,2.30
2022-08-09T03:33:54.120Z,2.40
2022-08-09T03:36:27.253Z,2.10
2022-08-09T03:38:57.822Z,2.35
2022-08-09T03:41:30.103Z,2.85
2022-08-09T03:44:12.161Z,2.58
2022-08-09T03:46:40.580Z,2.53
2022-08-09T03:49:10.876Z,2.63
2022-08-09T03:51:55.455Z,2.10
2022-08-09T03:54:29.684Z,2.28
2022-08-09T03:57:00.951Z,2.58
2022-08-09T03:59:53.241Z,2.70
2022-08-09T04:02:27.300Z,2.85
2022-08-09T04:05:06.255Z,2.80
2022-08-09T04:07:53.596Z,2.83
2022-08-09T04:10:28.744Z,3.28
2022-08-09T04:13:02.705Z,3.20
2022-08-09T04:16:17.181Z,4.20
2022-08-09T04:18:22.003Z,3.10
2022-08-09T04:20:52.111Z,2.83
2022-08-09T04:23:23.481Z,3.00
2022-08-09T04:25:53.702Z,3.40
2022-08-09T04:28:33.916Z,3.20
2022-08-09T04:31:07.991Z,2.90
2022-08-09T04:33:47.578Z,3.00
2022-08-09T04:36:27.743Z,3.20
2022-08-09T04:38:59.239Z,3.13
2022-08-09T04:41:32.514Z,3.00
2022-08-09T04:44:07.299Z,3.40
2022-08-09T04:46:57.222Z,2.80
2022-08-09T04:49:54.781Z,2.20
2022-08-09T04:52:26.933Z,2.45
2022-08-09T04:54:56.215Z,2.58
2022-08-09T04:57:25.344Z,2.30
2022-08-09T04:59:55.728Z,2.40
2022-08-09T05:02:29.345Z,2.10
2022-08-09T05:04:57.736Z,2.30
2022-08-09T05:07:34.037Z,2.38
2022-08-09T05:10:02.491Z,2.10
2022-08-09T05:12:32.983Z,2.50
2022-08-09T05:15:11.545Z,2.60
2022-08-09T05:18:39.041Z,2.40
2022-08-09T05:20:40.376Z,2.50
2022-08-09T05:23:59.760Z,2.60
2022-08-09T05:25:58.939Z,2.42
2022-08-09T05:28:27.452Z,2.15
2022-08-09T05:30:55.895Z,2.50
2022-08-09T05:33:26.451Z,1.80
2022-08-09T05:36:01.788Z,2.30
2022-08-09T05:38:31.699Z,2.28
2022-08-09T05:41:00.266Z,2.87
2022-08-09T05:43:29.137Z,2.30
2022-08-09T05:46:00.798Z,2.15
2022-08-09T05:48:32.985Z,1.90
2022-08-09T05:51:42.332Z,2.30
2022-08-09T05:53:57.691Z,2.22
2022-08-09T05:56:27.751Z,1.90
2022-08-09T05:58:58.532Z,2.25
2022-08-09T06:01:33.670Z,2.35
2022-08-09T06:04:12.108Z,2.10
2022-08-09T06:06:46.790Z,2.40
2022-08-09T06:09:23.197Z,2.58
2022-08-09T06:12:08.883Z,2.40
2022-08-09T06:14:37.886Z,2.40
2022-08-09T06:17:10.217Z,2.38
2022-08-09T06:19:38.762Z,2.47
2022-08-09T06:22:14.913Z,2.60
2022-08-09T06:24:45.382Z,2.70
2022-08-09T06:27:15.430Z,2.43
2022-08-09T06:29:58.487Z,2.53
2022-08-09T06:33:13.122Z,2.70
2022-08-09T06:35:21.608Z,2.65
2022-08-09T06:38:09.904Z,2.58
2022-08-09T06:40:40.916Z,2.80
2022-08-09T06:43:10.542Z,2.60
2022-08-09T06:46:06.772Z,2.60
2022-08-09T06:48:31.094Z,3.00
2022-08-09T06:51:00.315Z,2.53
2022-08-09T06:53:38.021Z,3.10
2022-08-09T06:56:09.666Z,2.70
2022-08-09T07:00:47.358Z,3.00
2022-08-09T07:01:53.526Z,2.43
2022-08-09T07:04:19.829Z,2.85
2022-08-09T07:06:53.121Z,2.85
2022-08-09T07:09:57.106Z,2.53
2022-08-09T07:12:18.218Z,2.53
2022-08-09T07:14:51.321Z,2.80
2022-08-09T07:17:22.139Z,3.40
2022-08-09T07:19:55.498Z,2.90
2022-08-09T07:22:34.348Z,2.80
2022-08-09T07:25:05.192Z,2.70
2022-08-09T07:27:42.728Z,2.90
2022-08-09T07:30:13.560Z,2.90
2022-08-09T07:32:43.069Z,2.97
2022-08-09T07:35:15.018Z,3.13
2022-08-09T07:37:46.181Z,2.97
2022-08-09T07:40:20.645Z,3.30
2022-08-09T07:42:58.668Z,3.40
2022-08-09T07:45:37.383Z,2.42
2022-08-09T07:48:28.763Z,2.80
2022-08-09T07:51:10.051Z,2.80
2022-08-09T07:54:05.414Z,2.95
2022-08-09T07:56:34.937Z,2.80
2022-08-09T07:59:14.072Z,2.80
2022-08-09T08:01:53.251Z,2.80
2022-08-09T08:04:25.552Z,2.75
2022-08-09T08:07:15.525Z,2.25
2022-08-09T08:09:53.375Z,2.80
2022-08-09T08:12:36.593Z,2.88
2022-08-09T08:15:07.748Z,3.10
2022-08-09T08:17:54.651Z,3.13
2022-08-09T08:20:32.834Z,2.78
2022-08-09T08:23:06.500Z,3.00
2022-08-09T08:25:46.619Z,2.60
2022-08-09T08:28:18.024Z,2.80
2022-08-09T08:30:55.925Z,3.30
2022-08-09T08:33:24.798Z,2.90
2022-08-09T08:36:00.055Z,2.90
2022-08-09T08:38:29.687Z,2.53
2022-08-09T08:40:58.994Z,2.60
2022-08-09T08:43:27.894Z,2.28
2022-08-09T08:46:10.279Z,2.50
2022-08-09T08:48:53.530Z,2.53
2022-08-09T08:51:23.638Z,2.60
2022-08-09T08:54:04.274Z,2.10
2022-08-09T08:56:35.965Z,2.57
2022-08-09T08:59:19.706Z,2.20
2022-08-09T09:01:57.070Z,2.60
2022-08-09T09:04:31.371Z,2.30
2022-08-09T09:07:12.160Z,2.30
2022-08-09T09:09:59.549Z,2.10
2022-08-09T09:12:34.203Z,2.22
2022-08-09T09:15:06.232Z,2.47
2022-08-09T09:17:49.528Z,2.00
2022-08-09T09:20:21.989Z,2.10
2022-08-09T09:22:57.559Z,2.45
2022-08-09T09:26:02.013Z,2.30
2022-08-09T09:29:02.875Z,2.30
2022-08-09T09:31:17.140Z,2.10
2022-08-09T09:34:18.534Z,2.10
2022-08-09T09:36:54.259Z,2.00
2022-08-09T09:39:42.513Z,2.40
2022-08-09T09:42:24.729Z,2.20
2022-08-09T09:44:57.975Z,2.30
2022-08-09T09:47:28.307Z,1.98
2022-08-09T09:50:15.231Z,1.92
2022-08-09T09:52:53.538Z,2.10
2022-08-09T09:55:32.557Z,2.15
2022-08-09T09:58:18.903Z,2.10
2022-08-09T10:00:52.742Z,2.22
2022-08-09T10:03:56.424Z,2.05
2022-08-09T10:06:32.085Z,2.00
2022-08-09T10:09:22.819Z,2.03
2022-08-09T10:12:12.434Z,2.17
2022-08-09T10:14:48.494Z,2.15
2022-08-09T10:17:40.621Z,1.75
2022-08-09T10:20:27.007Z,1.90
2022-08-09T10:23:20.169Z,1.90
2022-08-09T10:26:07.954Z,2.10
2022-08-09T10:28:40.552Z,1.98
2022-08-09T10:34:08.423Z,2.15
2022-08-09T10:36:40.123Z,1.90
2022-08-09T10:39:15.844Z,1.90
2022-08-09T10:41:48.291Z,2.10
2022-08-09T10:44:21.775Z,2.05
2022-08-09T10:48:12.739Z,2.50
2022-08-09T10:50:15.094Z,1.85
2022-08-09T10:53:05.643Z,1.90
2022-08-09T10:55:55.477Z,1.80
2022-08-09T10:58:37.429Z,2.10
2022-08-09T11:03:06.578Z,2.10
2022-08-09T11:04:30.118Z,2.00
2022-08-09T11:07:54.954Z,1.80
2022-08-09T11:10:47.204Z,2.08
2022-08-09T11:13:50.366Z,1.90
2022-08-09T11:16:35.668Z,1.80
2022-08-09T11:19:09.694Z,2.10
2022-08-09T11:21:57.524Z,1.83
2022-08-09T11:25:05.704Z,1.92
2022-08-09T11:28:03.789Z,1.80
2022-08-09T11:30:37.908Z,1.77
2022-08-09T11:33:12.910Z,1.70
2022-08-09T11:35:50.232Z,1.70
2022-08-09T11:38:32.749Z,2.00
2022-08-09T11:41:05.370Z,1.80
2022-08-09T11:43:41.972Z,1.77
2022-08-09T11:46:11.952Z,1.80
2022-08-09T11:48:51.021Z,1.98
2022-08-09T11:53:16.260Z,1.77
2022-08-09T11:54:14.549Z,2.00
2022-08-09T11:57:16.666Z,1.83
2022-08-09T11:59:58.074Z,2.30
2022-08-09T12:02:37.771Z,2.05
2022-08-09T12:05:17.667Z,2.00
2022-08-09T12:07:52.739Z,1.67
2022-08-09T12:10:38.511Z,2.00
2022-08-09T12:14:10.511Z,1.90
2022-08-09T12:16:03.128Z,2.00
2022-08-09T12:18:33.639Z,1.88
2022-08-09T12:21:10.996Z,1.80
2022-08-09T12:24:09.225Z,1.60
2022-08-09T12:26:44.789Z,2.10
2022-08-09T12:29:52.517Z,1.80
2022-08-09T12:32:27.288Z,1.90
2022-08-09T12:35:02.713Z,2.17
2022-08-09T12:37:49.754Z,1.95
2022-08-09T12:40:21.218Z,2.00
2022-08-09T12:42:51.778Z,1.95
2022-08-09T12:45:33.975Z,1.85
2022-08-09T12:48:20.115Z,2.00
2022-08-09T12:50:59.545Z,2.33
2022-08-09T12:53:37.739Z,1.95
2022-08-09T12:56:39.549Z,2.55
2022-08-09T12:59:10.286Z,2.00
2022-08-09T13:01:42.828Z,3.10
2022-08-09T13:04:37.786Z,1.90
2022-08-09T13:07:16.552Z,2.20
2022-08-09T13:09:55.902Z,2.30
2022-08-09T13:12:30.755Z,1.70
2022-08-09T13:15:07.103Z,1.90
2022-08-09T13:17:58.669Z,1.63
2022-08-09T13:20:37.439Z,1.50
2022-08-09T13:24:16.226Z,2.03
2022-08-09T13:26:10.204Z,1.40
2022-08-09T13:28:39.727Z,1.70
2022-08-09T13:32:14.048Z,1.90
2022-08-09T13:33:58.419Z,1.80
2022-08-09T13:36:41.178Z,1.80
2022-08-09T13:41:18.817Z,1.80
2022-08-09T13:42:05.523Z,1.67
2022-08-09T13:44:42.872Z,1.58
2022-08-09T13:47:29.404Z,1.90
2022-08-09T13:50:01.873Z,3.70
2022-08-09T13:52:33.892Z,1.80
2022-08-09T13:55:05.305Z,1.90
2022-08-09T13:57:40.266Z,2.60
2022-08-09T14:00:13.351Z,1.73
2022-08-09T14:03:04.146Z,1.70
2022-08-09T14:05:58.910Z,2.00
2022-08-09T14:08:21.785Z,1.58
2022-08-09T14:10:52.919Z,2.72
2022-08-09T14:14:16.511Z,2.28
2022-08-09T14:16:14.932Z,1.83
2022-08-09T14:18:50.383Z,1.55
2022-08-09T14:21:22.725Z,1.50
2022-08-09T14:23:56.546Z,1.90
2022-08-09T14:26:32.917Z,1.80
2022-08-09T14:29:07.849Z,1.70
2022-08-09T14:31:54.678Z,1.67
2022-08-09T14:34:27.505Z,1.50
2022-08-09T14:37:01.953Z,1.95
2022-08-09T14:39:45.666Z,1.70
2022-08-09T14:42:31.855Z,1.58
2022-08-09T14:46:38.935Z,1.40
2022-08-09T14:47:59.657Z,1.60
2022-08-09T14:50:31.092Z,1.80
2022-08-09T14:53:00.930Z,4.13
2022-08-09T14:55:32.590Z,1.77
2022-08-09T14:58:05.367Z,1.60
2022-08-09T15:00:36.565Z,1.83
2022-08-09T15:03:07.188Z,1.45
2022-08-09T15:05:38.381Z,1.67
2022-08-09T15:08:10.375Z,1.50
2022-08-09T15:10:40.329Z,1.80
2022-08-09T15:13:09.146Z,1.80
2022-08-09T15:15:39.238Z,1.70
2022-08-09T15:18:12.311Z,1.60
2022-08-09T15:21:57.002Z,1.95
2022-08-09T15:24:01.648Z,1.50
2022-08-09T15:26:31.732Z,1.60
2022-08-09T15:29:04.034Z,1.80
2022-08-09T15:31:41.884Z,1.85
2022-08-09T15:34:32.057Z,1.60
2022-08-09T15:37:01.183Z,1.70
2022-08-09T15:39:43.959Z,1.50
2022-08-09T15:42:22.171Z,1.90
2022-08-09T15:44:50.904Z,2.13
2022-08-09T15:47:22.542Z,1.85
2022-08-09T15:50:05.021Z,1.75
2022-08-09T15:52:35.597Z,1.80
2022-08-09T15:55:04.968Z,1.60
2022-08-09T15:57:44.530Z,1.45
2022-08-09T16:00:25.494Z,1.60
2022-08-09T16:02:56.925Z,1.30
2022-08-09T16:05:47.439Z,1.38
2022-08-09T16:08:29.866Z,1.50
2022-08-09T16:11:00.143Z,1.50
2022-08-09T16:14:03.302Z,1.40
2022-08-09T16:16:28.154Z,1.40
2022-08-09T16:18:57.227Z,1.27
2022-08-09T16:21:26.407Z,1.55
2022-08-09T16:24:02.761Z,1.40
2022-08-09T16:26:34.456Z,1.50
2022-08-09T16:29:11.354Z,1.40
2022-08-09T16:32:18.159Z,1.60
2022-08-09T16:34:54.961Z,1.40
2022-08-09T16:37:20.155Z,1.30
2022-08-09T16:40:09.666Z,1.40
2022-08-09T16:42:38.361Z,1.50
2022-08-09T16:45:10.302Z,1.30
2022-08-09T16:48:39.806Z,1.50
2022-08-09T16:50:33.823Z,1.60
2022-08-09T16:53:02.950Z,1.50
2022-08-09T16:55:57.924Z,1.70
2022-08-09T16:58:22.574Z,1.40
2022-08-09T17:00:52.354Z,1.30
2022-08-09T17:03:22.961Z,1.40
2022-08-09T17:06:07.079Z,1.40
2022-08-09T17:08:43.400Z,1.80
2022-08-09T17:11:16.494Z,1.70
2022-08-09T17:14:01.132Z,1.48
2022-08-09T17:16:31.215Z,1.40
2022-08-09T17:19:06.739Z,1.40
2022-08-09T17:21:39.043Z,1.40
2022-08-09T17:24:27.411Z,2.10
2022-08-09T17:26:56.370Z,2.83
2022-08-09T17:29:31.472Z,4.30
2022-08-09T17:32:08.065Z,3.65
2022-08-09T17:35:03.723Z,2.70
2022-08-09T17:37:32.640Z,2.53
2022-08-09T17:40:21.000Z,2.38
2022-08-09T17:43:03.250Z,1.57
2022-08-09T17:46:02.227Z,1.60
2022-08-09T17:48:33.338Z,1.40
2022-08-09T17:51:17.136Z,1.42
2022-08-09T17:53:51.799Z,1.40
2022-08-09T17:56:21.265Z,1.50
2022-08-09T17:58:49.573Z,1.30
2022-08-09T18:01:22.464Z,1.70
2022-08-09T18:03:54.303Z,1.80
2022-08-09T18:06:32.230Z,1.40
2022-08-09T18:09:03.550Z,1.80
2022-08-09T18:11:47.013Z,1.30
2022-08-09T18:14:22.856Z,2.00
2022-08-09T18:16:53.012Z,1.70
2022-08-09T18:20:57.954Z,1.15
2022-08-09T18:22:17.065Z,1.50
2022-08-09T18:24:46.612Z,1.60
2022-08-09T18:27:49.412Z,2.10
2022-08-09T18:30:36.282Z,1.92
2022-08-09T18:32:54.374Z,1.80
2022-08-09T18:35:58.503Z,1.33
2022-08-09T18:38:13.355Z,1.70
2022-08-09T18:40:43.110Z,1.88
2022-08-09T18:43:13.585Z,2.13
2022-08-09T18:46:46.670Z,1.50
2022-08-09T18:48:33.200Z,1.50
2022-08-09T18:51:05.669Z,1.90
2022-08-09T18:53:59.746Z,1.77
2022-08-09T18:56:27.118Z,1.52
2022-08-09T18:58:56.769Z,1.20
2022-08-09T19:01:25.816Z,1.70
2022-08-09T19:04:01.599Z,1.60
2022-08-09T19:06:38.396Z,1.40
2022-08-09T19:09:07.859Z,1.40
2022-08-09T19:11:44.570Z,1.70
2022-08-09T19:14:12.877Z,1.40
2022-08-09T19:16:49.912Z,1.50
2022-08-09T19:19:25.725Z,1.50
2022-08-09T19:22:06.923Z,1.20
2022-08-09T19:25:09.945Z,1.30
2022-08-09T19:27:28.425Z,1.30
2022-08-09T19:30:24.608Z,1.10
2022-08-09T19:32:46.186Z,1.10
2022-08-09T19:35:26.263Z,1.20
2022-08-09T19:37:57.648Z,1.00
2022-08-09T19:40:33.957Z,1.00
2022-08-09T19:43:05.278Z,1.10
2022-08-09T19:45:39.041Z,1.30
2022-08-09T19:48:10.674Z,1.20
2022-08-09T19:50:50.249Z,1.10
2022-08-09T19:53:21.437Z,1.20
2022-08-09T19:56:03.285Z,1.30
2022-08-09T19:58:36.428Z,1.00
2022-08-09T20:01:04.966Z,1.00
2022-08-09T20:04:18.202Z,1.20
2022-08-09T20:06:29.652Z,1.17
2022-08-09T20:09:01.018Z,1.10
2022-08-09T20:11:42.781Z,1.50
2022-08-09T20:14:15.636Z,1.00
2022-08-09T20:16:53.161Z,1.27
2022-08-09T20:19:49.236Z,1.00
2022-08-09T20:22:14.072Z,1.00
2022-08-09T20:24:54.175Z,1.27
2022-08-09T20:27:22.950Z,1.20
2022-08-09T20:29:51.628Z,1.23
2022-08-09T20:32:40.255Z,1.00
2022-08-09T20:35:09.725Z,1.30
2022-08-09T20:38:23.529Z,1.50
2022-08-09T20:40:30.184Z,1.35
2022-08-09T20:43:12.305Z,1.40
2022-08-09T20:46:01.242Z,1.20
2022-08-09T20:48:39.029Z,1.00
2022-08-09T20:51:07.991Z,1.00
2022-08-09T20:53:48.791Z,1.13
2022-08-09T20:56:21.867Z,1.30
2022-08-09T20:58:58.650Z,1.30
2022-08-09T21:01:34.909Z,1.10
2022-08-09T21:05:53.709Z,0.90
2022-08-09T21:07:11.273Z,1.20
2022-08-09T21:09:45.567Z,1.10
2022-08-09T21:14:50.237Z,1.40
2022-08-09T21:18:11.796Z,1.20
2022-08-09T21:20:25.272Z,1.40
2022-08-09T21:22:55.046Z,1.20
2022-08-09T21:25:39.036Z,1.10
2022-08-09T21:28:15.771Z,1.30
2022-08-09T21:30:44.817Z,1.20
2022-08-09T21:33:15.970Z,1.27
2022-08-09T21:35:50.988Z,1.10
2022-08-09T21:38:21.147Z,1.20
2022-08-09T21:41:00.507Z,1.00
2022-08-09T21:43:57.133Z,1.30
2022-08-09T21:46:18.527Z,1.20
2022-08-09T21:48:49.314Z,1.60
2022-08-09T21:51:24.043Z,1.23
2022-08-09T21:54:04.605Z,1.40
2022-08-09T21:56:43.355Z,1.30
2022-08-09T21:59:23.358Z,1.20
2022-08-09T22:02:01.164Z,1.30
2022-08-09T22:04:56.900Z,1.30
2022-08-09T22:07:23.384Z,1.30
2022-08-09T22:10:09.359Z,1.48
2022-08-09T22:12:38.780Z,1.35
2022-08-09T22:15:16.524Z,1.27
2022-08-09T22:17:46.001Z,1.30
2022-08-09T22:20:21.491Z,1.20
2022-08-09T22:22:50.632Z,1.20
2022-08-09T22:26:05.978Z,1.20
2022-08-09T22:28:07.853Z,1.50
2022-08-09T22:30:37.583Z,1.48
2022-08-09T22:33:10.172Z,1.10
2022-08-09T22:36:01.165Z,1.10
2022-08-09T22:38:26.948Z,1.40
2022-08-09T22:40:57.981Z,1.70
2022-08-09T22:44:01.944Z,1.40
2022-08-09T22:48:15.519Z,1.50
2022-08-09T22:49:10.121Z,1.40
2022-08-09T22:51:39.587Z,1.40
2022-08-09T22:54:21.442Z,1.80
2022-08-09T22:56:54.582Z,1.20
2022-08-09T22:59:57.827Z,1.38
2022-08-09T23:02:19.907Z,1.20
2022-08-09T23:04:54.189Z,1.30
2022-08-09T23:08:21.984Z,1.30
2022-08-09T23:10:30.736Z,1.20
2022-08-09T23:12:59.578Z,1.30
2022-08-09T23:15:28.431Z,1.10
2022-08-09T23:17:58.703Z,1.40
2022-08-09T23:20:28.730Z,1.10
2022-08-09T23:22:57.305Z,1.20
2022-08-09T23:25:25.614Z,1.50
2022-08-09T23:28:14.073Z,1.00
2022-08-09T23:30:51.190Z,1.50
2022-08-09T23:33:22.270Z,1.23
2022-08-09T23:36:04.680Z,1.25
2022-08-09T23:38:35.056Z,1.70
2022-08-09T23:41:04.428Z,1.27
2022-08-09T23:43:32.752Z,1.50
2022-08-09T23:46:01.119Z,1.20
2022-08-09T23:48:30.821Z,1.40
2022-08-09T23:50:59.071Z,1.40
2022-08-09T23:53:29.009Z,1.45
2022-08-09T23:56:06.808Z,1.50
2022-08-09T23:58:35.413Z,1.63
